createdAt,value
2022-09-09T00:00:23.213Z,17.50
2022-09-09T00:02:55.484Z,17.40
2022-09-09T00:05:31.107Z,17.40
2022-09-09T00:08:02.121Z,17.30
2022-09-09T00:10:31.690Z,17.20
2022-09-09T00:13:01.856Z,17.10
2022-09-09T00:15:31.909Z,17.10
2022-09-09T00:18:01.746Z,16.90
2022-09-09T00:20:31.830Z,16.90
2022-09-09T00:23:02.906Z,16.80
2022-09-09T00:25:35.144Z,16.70
2022-09-09T00:28:03.219Z,16.70
2022-09-09T00:30:33.969Z,16.60
2022-09-09T00:33:03.755Z,16.50
2022-09-09T00:35:33.684Z,16.50
2022-09-09T00:38:06.316Z,16.50
2022-09-09T00:40:35.206Z,16.50
2022-09-09T00:43:12.241Z,16.50
2022-09-09T00:45:53.305Z,16.50
2022-09-09T00:48:22.419Z,16.50
2022-09-09T00:50:56.281Z,16.50
2022-09-09T00:53:34.731Z,16.50
2022-09-09T00:56:07.094Z,16.50
2022-09-09T00:58:35.088Z,16.40
2022-09-09T01:01:07.643Z,16.40
2022-09-09T01:03:36.980Z,16.40
2022-09-09T01:06:14.183Z,16.40
2022-09-09T01:08:52.294Z,16.50
2022-09-09T01:11:23.379Z,16.50
2022-09-09T01:13:55.600Z,16.60
2022-09-09T01:16:23.654Z,16.60
2022-09-09T01:18:53.925Z,16.60
2022-09-09T01:21:29.970Z,16.60
2022-09-09T01:24:07.824Z,16.50
2022-09-09T01:26:51.823Z,16.50
2022-09-09T01:29:26.525Z,16.40
2022-09-09T01:31:55.779Z,16.40
2022-09-09T01:34:24.915Z,16.40
2022-09-09T01:36:55.734Z,16.30
2022-09-09T01:39:23.696Z,16.40
2022-09-09T01:42:01.376Z,16.40
2022-09-09T01:44:29.890Z,16.40
2022-09-09T01:46:57.760Z,16.40
2022-09-09T01:49:25.571Z,16.40
2022-09-09T01:51:54.153Z,16.40
2022-09-09T01:54:30.012Z,16.30
2022-09-09T01:57:07.929Z,16.30
2022-09-09T01:59:47.212Z,16.30
2022-09-09T02:02:19.325Z,16.40
2022-09-09T02:04:58.788Z,16.40
2022-09-09T02:07:32.818Z,16.40
2022-09-09T02:10:05.463Z,16.40
2022-09-09T02:12:34.830Z,16.40
2022-09-09T02:15:05.892Z,16.50
2022-09-09T02:17:43.735Z,16.50
2022-09-09T02:20:17.808Z,16.50
2022-09-09T02:22:54.322Z,16.60
2022-09-09T02:25:26.188Z,16.60
2022-09-09T02:27:59.718Z,16.70
2022-09-09T02:30:29.683Z,16.80
2022-09-09T02:33:02.435Z,16.90
2022-09-09T02:35:45.623Z,16.90
2022-09-09T02:38:17.202Z,17.00
2022-09-09T02:40:55.980Z,17.00
2022-09-09T02:43:25.979Z,17.10
2022-09-09T02:45:59.858Z,17.10
2022-09-09T02:48:30.838Z,17.10
2022-09-09T02:51:02.038Z,17.20
2022-09-09T02:53:38.691Z,17.20
2022-09-09T02:56:10.172Z,17.30
2022-09-09T02:58:44.156Z,17.30
2022-09-09T03:01:12.078Z,17.30
2022-09-09T03:03:42.424Z,17.30
2022-09-09T03:06:15.400Z,17.30
2022-09-09T03:08:49.453Z,17.30
2022-09-09T03:11:21.216Z,17.30
2022-09-09T03:13:50.854Z,17.20
2022-09-09T03:16:19.030Z,17.20
2022-09-09T03:18:50.628Z,17.20
2022-09-09T03:21:18.639Z,17.10
2022-09-09T03:23:47.077Z,17.10
2022-09-09T03:26:16.042Z,17.00
2022-09-09T03:28:47.029Z,16.90
2022-09-09T03:31:20.305Z,16.90
2022-09-09T03:33:48.811Z,16.90
2022-09-09T03:36:18.233Z,16.90
2022-09-09T03:38:46.361Z,16.90
2022-09-09T03:41:14.498Z,16.80
2022-09-09T03:43:42.834Z,16.90
2022-09-09T03:46:10.813Z,16.90
2022-09-09T03:48:40.554Z,16.90
2022-09-09T03:51:08.444Z,16.90
2022-09-09T03:53:37.778Z,16.80
2022-09-09T03:56:07.581Z,16.70
2022-09-09T03:58:36.108Z,16.60
2022-09-09T04:01:10.043Z,16.50
2022-09-09T04:03:40.470Z,16.40
2022-09-09T04:06:10.585Z,16.30
2022-09-09T04:08:39.492Z,16.20
2022-09-09T04:11:08.484Z,16.20
2022-09-09T04:13:38.588Z,16.10
2022-09-09T04:16:07.063Z,16.00
2022-09-09T04:18:36.801Z,16.00
2022-09-09T04:21:07.514Z,16.00
2022-09-09T04:23:37.047Z,16.00
2022-09-09T04:26:06.474Z,16.00
2022-09-09T04:28:36.396Z,16.00
2022-09-09T04:31:06.965Z,16.10
2022-09-09T04:33:39.920Z,16.20
2022-09-09T04:36:10.288Z,16.20
2022-09-09T04:38:38.844Z,16.30
2022-09-09T04:41:06.853Z,16.30
2022-09-09T04:43:36.153Z,16.40
2022-09-09T04:46:06.568Z,16.40
2022-09-09T04:48:34.567Z,16.40
2022-09-09T04:51:05.218Z,16.30
2022-09-09T04:53:36.025Z,16.30
2022-09-09T04:56:05.333Z,16.20
2022-09-09T04:58:37.069Z,16.10
2022-09-09T05:01:07.842Z,16.00
2022-09-09T05:03:36.344Z,16.00
2022-09-09T05:06:07.345Z,15.90
2022-09-09T05:08:36.851Z,15.90
2022-09-09T05:11:05.115Z,15.90
2022-09-09T05:13:33.525Z,15.90
2022-09-09T05:16:01.810Z,15.90
2022-09-09T05:18:29.980Z,16.00
2022-09-09T05:21:02.812Z,16.00
2022-09-09T05:23:32.114Z,16.20
2022-09-09T05:26:03.059Z,16.40
2022-09-09T05:28:31.720Z,16.50
2022-09-09T05:31:01.411Z,16.50
2022-09-09T05:33:31.742Z,16.40
2022-09-09T05:36:00.494Z,16.30
2022-09-09T05:38:28.933Z,16.30
2022-09-09T05:40:58.071Z,16.30
2022-09-09T05:43:28.130Z,16.20
2022-09-09T05:46:02.058Z,16.20
2022-09-09T05:48:30.361Z,16.20
2022-09-09T05:50:58.469Z,16.20
2022-09-09T05:53:26.611Z,16.10
2022-09-09T05:56:00.417Z,16.10
2022-09-09T05:58:30.074Z,16.10
2022-09-09T06:01:05.298Z,16.10
2022-09-09T06:03:33.752Z,16.10
2022-09-09T06:06:02.608Z,16.30
2022-09-09T06:08:30.604Z,16.80
2022-09-09T06:11:03.599Z,17.40
2022-09-09T06:13:33.410Z,17.80
2022-09-09T06:16:01.613Z,18.20
2022-09-09T06:18:30.566Z,18.50
2022-09-09T06:20:58.925Z,18.80
2022-09-09T06:23:27.557Z,18.90
2022-09-09T06:26:02.573Z,18.70
2022-09-09T06:28:30.950Z,18.80
2022-09-09T06:31:04.773Z,19.30
2022-09-09T06:33:33.503Z,19.30
2022-09-09T06:36:01.678Z,19.50
2022-09-09T06:38:30.044Z,19.30
2022-09-09T06:40:59.444Z,19.10
2022-09-09T06:43:27.559Z,19.10
2022-09-09T06:45:57.519Z,19.00
2022-09-09T06:48:28.830Z,18.80
2022-09-09T06:51:03.588Z,18.60
2022-09-09T06:53:32.148Z,18.60
2022-09-09T06:56:00.473Z,18.60
2022-09-09T06:58:28.324Z,18.60
2022-09-09T07:01:03.734Z,18.70
2022-09-09T07:03:33.199Z,18.50
2022-09-09T07:06:02.713Z,18.30
2022-09-09T07:08:32.231Z,18.10
2022-09-09T07:11:07.984Z,18.00
2022-09-09T07:13:39.252Z,18.00
2022-09-09T07:16:09.254Z,17.90
2022-09-09T07:18:38.712Z,17.90
2022-09-09T07:21:07.595Z,17.90
2022-09-09T07:23:36.636Z,17.90
2022-09-09T07:26:09.322Z,17.90
2022-09-09T07:28:37.662Z,17.90
2022-09-09T07:31:07.188Z,17.90
2022-09-09T07:33:38.059Z,17.90
2022-09-09T07:36:08.047Z,18.00
2022-09-09T07:38:39.983Z,18.10
2022-09-09T07:41:10.215Z,18.20
2022-09-09T07:43:38.388Z,18.20
2022-09-09T07:46:06.989Z,18.40
2022-09-09T07:48:35.548Z,18.40
2022-09-09T07:51:09.923Z,18.50
2022-09-09T07:53:39.266Z,18.50
2022-09-09T07:56:10.140Z,18.70
2022-09-09T07:58:38.710Z,18.80
2022-09-09T08:01:11.155Z,18.90
2022-09-09T08:03:39.200Z,19.20
2022-09-09T08:06:08.950Z,19.50
2022-09-09T08:08:39.611Z,19.90
2022-09-09T08:11:09.979Z,20.20
2022-09-09T08:13:38.300Z,20.50
2022-09-09T08:16:08.050Z,20.60
2022-09-09T08:18:36.042Z,20.50
2022-09-09T08:21:07.511Z,20.50
2022-09-09T08:23:36.130Z,20.60
2022-09-09T08:26:11.370Z,20.80
2022-09-09T08:28:40.513Z,20.70
2022-09-09T08:31:12.927Z,20.80
2022-09-09T08:33:42.364Z,20.80
2022-09-09T08:36:11.966Z,20.60
2022-09-09T08:38:40.159Z,20.40
2022-09-09T08:41:32.147Z,20.40
2022-09-09T08:44:07.838Z,20.50
2022-09-09T08:46:39.269Z,20.60
2022-09-09T08:49:15.479Z,20.70
2022-09-09T08:51:44.356Z,20.60
2022-09-09T08:54:12.558Z,20.30
2022-09-09T08:56:40.909Z,20.20
2022-09-09T08:59:13.438Z,20.20
2022-09-09T09:01:52.129Z,20.40
2022-09-09T09:04:32.530Z,20.70
2022-09-09T09:07:06.542Z,21.40
2022-09-09T09:09:40.252Z,21.40
2022-09-09T09:12:17.107Z,21.20
2022-09-09T09:14:48.507Z,21.10
2022-09-09T09:17:20.045Z,21.10
2022-09-09T09:19:50.540Z,21.20
2022-09-09T09:22:21.059Z,21.20
2022-09-09T09:24:53.429Z,20.90
2022-09-09T09:27:29.612Z,20.50
2022-09-09T09:30:23.875Z,20.20
2022-09-09T09:32:53.800Z,19.70
2022-09-09T09:35:22.003Z,19.80
2022-09-09T09:40:38.344Z,21.80
2022-09-09T09:43:09.639Z,22.60
2022-09-09T09:45:55.183Z,22.80
2022-09-09T09:48:34.669Z,22.60
2022-09-09T09:51:11.458Z,22.30
2022-09-09T09:53:40.701Z,22.00
2022-09-09T09:56:12.354Z,21.10
2022-09-09T09:58:52.201Z,20.40
2022-09-09T10:01:26.526Z,20.20
2022-09-09T10:03:54.934Z,20.40
2022-09-09T10:06:31.625Z,20.10
2022-09-09T10:09:00.216Z,20.20
2022-09-09T10:11:32.472Z,20.10
2022-09-09T10:14:05.655Z,20.00
2022-09-09T10:16:45.764Z,19.80
2022-09-09T10:19:17.227Z,20.00
2022-09-09T10:21:59.796Z,21.40
2022-09-09T10:24:38.433Z,22.70
2022-09-09T10:27:12.868Z,23.80
2022-09-09T10:29:48.751Z,24.70
2022-09-09T10:32:33.982Z,25.30
2022-09-09T10:35:06.588Z,25.70
2022-09-09T10:37:44.493Z,25.60
2022-09-09T10:40:22.026Z,25.10
2022-09-09T10:42:50.070Z,25.70
2022-09-09T10:45:20.271Z,26.30
2022-09-09T10:48:11.538Z,26.80
2022-09-09T10:51:05.193Z,27.20
2022-09-09T10:53:46.871Z,27.60
2022-09-09T10:56:17.831Z,27.50
2022-09-09T10:58:48.752Z,27.20
2022-09-09T11:01:19.901Z,27.40
2022-09-09T11:03:51.441Z,27.80
2022-09-09T11:06:21.166Z,27.90
2022-09-09T11:08:52.724Z,26.50
2022-09-09T11:11:27.782Z,25.40
2022-09-09T11:13:57.894Z,24.70
2022-09-09T11:16:28.351Z,24.80
2022-09-09T11:19:01.728Z,24.50
2022-09-09T11:21:31.977Z,24.40
2022-09-09T11:24:01.703Z,25.30
2022-09-09T11:26:33.129Z,27.10
2022-09-09T11:29:10.527Z,27.50
2022-09-09T11:31:46.580Z,26.50
2022-09-09T11:34:23.390Z,25.30
2022-09-09T11:36:57.130Z,24.60
2022-09-09T11:39:40.643Z,24.70
2022-09-09T11:42:09.479Z,24.70
2022-09-09T11:47:27.567Z,24.40
2022-09-09T11:49:56.970Z,24.00
2022-09-09T11:52:27.713Z,23.70
2022-09-09T11:54:57.012Z,23.90
2022-09-09T11:57:32.551Z,24.40
2022-09-09T12:00:00.998Z,23.90
2022-09-09T12:02:31.971Z,23.80
2022-09-09T12:05:06.427Z,24.70
2022-09-09T12:07:36.493Z,25.20
2022-09-09T12:10:06.293Z,24.80
2022-09-09T12:12:34.995Z,24.30
2022-09-09T12:15:05.403Z,23.80
2022-09-09T12:17:34.280Z,23.80
2022-09-09T12:20:07.114Z,23.90
2022-09-09T12:22:40.146Z,23.90
2022-09-09T12:25:14.771Z,24.00
2022-09-09T12:27:46.733Z,24.00
2022-09-09T12:30:16.746Z,23.80
2022-09-09T12:32:45.537Z,23.90
2022-09-09T12:35:20.519Z,23.90
2022-09-09T12:37:49.719Z,23.60
2022-09-09T12:40:21.911Z,22.90
2022-09-09T12:42:49.810Z,21.90
2022-09-09T12:45:18.869Z,21.30
2022-09-09T12:47:48.122Z,20.80
2022-09-09T12:50:22.690Z,20.30
2022-09-09T12:52:52.004Z,20.30
2022-09-09T12:55:22.679Z,20.60
2022-09-09T12:57:52.651Z,21.00
2022-09-09T13:00:23.535Z,21.10
2022-09-09T13:02:52.891Z,21.10
2022-09-09T13:05:24.425Z,21.10
2022-09-09T13:07:52.702Z,20.90
2022-09-09T13:10:36.891Z,20.60
2022-09-09T13:13:16.404Z,20.40
2022-09-09T13:15:50.466Z,20.10
2022-09-09T13:18:19.981Z,20.00
2022-09-09T13:20:50.135Z,20.00
2022-09-09T13:23:20.649Z,20.00
2022-09-09T13:25:58.538Z,20.10
2022-09-09T13:28:27.506Z,20.30
2022-09-09T13:31:03.587Z,20.40
2022-09-09T13:33:33.207Z,20.40
2022-09-09T13:36:04.839Z,20.40
2022-09-09T13:38:35.203Z,20.50
2022-09-09T13:41:05.300Z,20.60
2022-09-09T13:43:35.794Z,20.80
2022-09-09T13:46:04.824Z,21.30
2022-09-09T13:48:33.039Z,22.20
2022-09-09T13:51:04.060Z,23.60
2022-09-09T13:53:32.071Z,24.50
2022-09-09T13:56:00.547Z,25.10
2022-09-09T13:58:28.421Z,25.20
2022-09-09T14:00:58.381Z,24.70
2022-09-09T14:03:26.343Z,24.50
2022-09-09T14:05:55.534Z,24.30
2022-09-09T14:08:26.068Z,23.60
2022-09-09T14:10:54.363Z,22.80
2022-09-09T14:13:23.020Z,22.00
2022-09-09T14:15:51.722Z,21.70
2022-09-09T14:18:19.571Z,21.40
2022-09-09T14:20:47.462Z,21.20
2022-09-09T14:23:16.454Z,21.00
2022-09-09T14:25:45.791Z,21.00
2022-09-09T14:28:14.540Z,21.00
2022-09-09T14:30:43.496Z,20.90
2022-09-09T14:33:12.616Z,20.80
2022-09-09T14:35:42.043Z,20.90
2022-09-09T14:38:10.057Z,20.90
2022-09-09T14:40:38.286Z,21.00
2022-09-09T14:43:07.668Z,21.20
2022-09-09T14:45:38.311Z,21.00
2022-09-09T14:48:06.454Z,20.80
2022-09-09T14:50:35.876Z,20.60
2022-09-09T14:53:03.762Z,20.50
2022-09-09T14:55:32.459Z,20.50
2022-09-09T14:58:00.602Z,20.50
2022-09-09T15:00:29.839Z,20.60
2022-09-09T15:02:57.851Z,20.60
2022-09-09T15:05:26.153Z,20.60
2022-09-09T15:07:54.076Z,20.60
2022-09-09T15:10:22.036Z,20.60
2022-09-09T15:12:49.881Z,20.60
2022-09-09T15:15:18.363Z,20.50
2022-09-09T15:17:48.524Z,20.40
2022-09-09T15:20:17.657Z,20.40
2022-09-09T15:22:45.528Z,20.40
2022-09-09T15:25:13.984Z,20.50
2022-09-09T15:27:41.985Z,20.80
2022-09-09T15:30:10.967Z,21.20
2022-09-09T15:32:39.457Z,21.40
2022-09-09T15:35:09.389Z,21.40
2022-09-09T15:37:37.346Z,21.40
2022-09-09T15:40:05.662Z,21.60
2022-09-09T15:42:33.625Z,21.80
2022-09-09T15:45:02.272Z,21.80
2022-09-09T15:47:30.297Z,21.70
2022-09-09T15:49:58.185Z,21.70
2022-09-09T15:52:27.790Z,21.70
2022-09-09T15:54:55.862Z,21.50
2022-09-09T15:57:23.735Z,21.20
2022-09-09T15:59:51.796Z,21.00
2022-09-09T16:02:19.950Z,20.90
2022-09-09T16:04:47.798Z,20.70
2022-09-09T16:07:15.652Z,20.50
2022-09-09T16:09:45.391Z,20.50
2022-09-09T16:12:14.021Z,20.40
2022-09-09T16:14:42.117Z,20.30
2022-09-09T16:17:09.944Z,20.10
2022-09-09T16:19:38.108Z,20.00
2022-09-09T16:22:07.499Z,20.00
2022-09-09T16:24:35.397Z,20.00
2022-09-09T16:27:05.088Z,20.10
2022-09-09T16:29:33.100Z,20.10
2022-09-09T16:32:04.121Z,19.90
2022-09-09T16:34:34.480Z,19.60
2022-09-09T16:37:03.927Z,19.50
2022-09-09T16:39:31.968Z,19.30
2022-09-09T16:42:00.819Z,19.20
2022-09-09T16:44:30.938Z,19.10
2022-09-09T16:47:00.887Z,19.00
2022-09-09T16:49:30.657Z,19.00
2022-09-09T16:51:59.630Z,19.00
2022-09-09T16:54:27.919Z,19.00
2022-09-09T16:56:55.865Z,19.00
2022-09-09T16:59:24.169Z,19.00
2022-09-09T17:01:54.360Z,19.00
2022-09-09T17:04:24.788Z,18.90
2022-09-09T17:06:53.644Z,18.90
2022-09-09T17:09:23.458Z,19.00
2022-09-09T17:11:53.467Z,18.90
2022-09-09T17:14:23.123Z,18.80
2022-09-09T17:16:50.994Z,18.70
2022-09-09T17:19:20.619Z,18.70
2022-09-09T17:22:14.836Z,18.60
2022-09-09T17:24:39.282Z,18.40
2022-09-09T17:27:07.190Z,18.30
2022-09-09T17:29:36.744Z,18.30
2022-09-09T17:32:06.347Z,18.20
2022-09-09T17:34:35.966Z,18.10
2022-09-09T17:37:04.008Z,18.00
2022-09-09T17:39:31.915Z,17.70
2022-09-09T17:41:59.851Z,17.40
2022-09-09T17:44:29.920Z,17.10
2022-09-09T17:46:57.918Z,16.90
2022-09-09T17:49:25.870Z,16.70
2022-09-09T17:51:56.137Z,16.50
2022-09-09T17:54:24.155Z,16.30
2022-09-09T17:56:53.255Z,16.20
2022-09-09T17:59:21.286Z,16.10
2022-09-09T18:01:51.253Z,16.00
2022-09-09T18:07:41.674Z,15.90
2022-09-09T18:10:09.825Z,15.90
2022-09-09T18:12:37.761Z,16.00
2022-09-09T18:15:06.237Z,16.00
2022-09-09T18:17:35.187Z,16.00
2022-09-09T18:20:03.827Z,16.10
2022-09-09T18:22:32.290Z,16.10
2022-09-09T18:25:01.546Z,16.10
2022-09-09T18:27:30.090Z,16.20
2022-09-09T18:29:58.015Z,16.20
2022-09-09T18:32:26.938Z,16.20
2022-09-09T18:34:56.328Z,16.20
2022-09-09T18:37:24.168Z,16.20
2022-09-09T18:39:53.004Z,16.10
2022-09-09T18:42:22.235Z,16.20
2022-09-09T18:44:50.313Z,16.20
2022-09-09T18:47:18.664Z,16.20
2022-09-09T18:49:47.336Z,16.10
2022-09-09T18:52:15.363Z,16.00
2022-09-09T18:54:45.972Z,15.80
2022-09-09T18:57:14.003Z,15.60
2022-09-09T18:59:43.408Z,15.40
2022-09-09T19:02:12.692Z,15.30
2022-09-09T19:04:40.504Z,15.30
2022-09-09T19:07:08.450Z,15.20
2022-09-09T19:09:36.607Z,15.20
2022-09-09T19:12:06.293Z,15.20
2022-09-09T19:14:34.452Z,15.30
2022-09-09T19:17:03.865Z,15.30
2022-09-09T19:19:33.051Z,15.30
2022-09-09T19:22:01.716Z,15.30
2022-09-09T19:24:30.495Z,15.30
2022-09-09T19:27:01.750Z,15.40
2022-09-09T19:29:30.998Z,15.50
2022-09-09T19:32:36.817Z,15.50
2022-09-09T19:34:49.201Z,15.50
2022-09-09T19:37:18.663Z,15.40
2022-09-09T19:39:47.874Z,15.30
2022-09-09T19:42:16.348Z,15.20
2022-09-09T19:44:44.354Z,15.10
2022-09-09T19:47:14.510Z,15.00
2022-09-09T19:49:46.718Z,14.90
2022-09-09T19:52:17.376Z,14.80
2022-09-09T19:54:45.479Z,14.70
2022-09-09T19:57:13.735Z,14.70
2022-09-09T19:59:41.622Z,14.60
2022-09-09T20:02:10.925Z,14.60
2022-09-09T20:04:39.115Z,14.60
2022-09-09T20:07:07.383Z,14.60
2022-09-09T20:09:36.688Z,14.60
2022-09-09T20:12:04.854Z,14.60
2022-09-09T20:14:37.267Z,14.60
2022-09-09T20:17:07.279Z,14.60
2022-09-09T20:19:35.888Z,14.60
2022-09-09T20:22:03.904Z,14.60
2022-09-09T20:24:31.863Z,14.60
2022-09-09T20:27:01.336Z,14.50
2022-09-09T20:29:29.364Z,14.50
2022-09-09T20:31:57.473Z,14.50
2022-09-09T20:34:29.329Z,14.40
2022-09-09T20:36:59.430Z,14.40
2022-09-09T20:39:27.826Z,14.30
2022-09-09T20:41:57.128Z,14.30
2022-09-09T20:44:26.456Z,14.30
2022-09-09T20:46:57.021Z,14.20
2022-09-09T20:49:25.658Z,14.20
2022-09-09T20:51:54.324Z,14.20
2022-09-09T20:54:23.836Z,14.10
2022-09-09T20:56:52.666Z,14.10
2022-09-09T20:59:21.591Z,14.10
2022-09-09T21:01:51.558Z,14.10
2022-09-09T21:04:20.673Z,14.10
2022-09-09T21:06:49.574Z,14.10
2022-09-09T21:09:17.735Z,14.10
2022-09-09T21:11:47.196Z,14.00
2022-09-09T21:14:15.601Z,14.10
2022-09-09T21:16:43.712Z,14.10
2022-09-09T21:19:13.124Z,14.20
2022-09-09T21:21:41.032Z,14.20
2022-09-09T21:24:09.062Z,14.20
2022-09-09T21:26:37.709Z,14.20
2022-09-09T21:29:05.631Z,14.20
2022-09-09T21:31:33.546Z,14.20
2022-09-09T21:34:01.643Z,14.10
2022-09-09T21:36:31.289Z,14.10
2022-09-09T21:38:59.423Z,14.10
2022-09-09T21:41:28.066Z,14.10
2022-09-09T21:43:56.646Z,14.00
2022-09-09T21:46:28.100Z,14.00
2022-09-09T21:48:57.077Z,14.00
2022-09-09T21:51:25.603Z,14.00
2022-09-09T21:53:57.202Z,14.00
2022-09-09T21:56:25.644Z,14.00
2022-09-09T21:58:57.826Z,14.00
2022-09-09T22:01:26.319Z,14.00
2022-09-09T22:03:54.354Z,14.00
2022-09-09T22:06:22.290Z,14.00
2022-09-09T22:08:50.208Z,13.90
2022-09-09T22:11:20.548Z,13.90
2022-09-09T22:13:48.849Z,13.90
2022-09-09T22:16:19.031Z,13.90
2022-09-09T22:18:51.497Z,14.00
2022-09-09T22:21:20.391Z,14.00
2022-09-09T22:23:52.928Z,13.90
2022-09-09T22:26:22.500Z,14.00
2022-09-09T22:28:50.402Z,14.00
2022-09-09T22:31:18.690Z,13.90
2022-09-09T22:33:46.544Z,13.90
2022-09-09T22:36:14.360Z,13.90
2022-09-09T22:38:42.796Z,13.90
2022-09-09T22:41:11.243Z,13.90
2022-09-09T22:43:42.676Z,13.90
2022-09-09T22:46:10.719Z,13.90
2022-09-09T22:48:39.546Z,13.90
2022-09-09T22:51:08.493Z,13.90
2022-09-09T22:53:36.662Z,13.90
2022-09-09T22:56:06.037Z,13.90
2022-09-09T22:58:36.211Z,13.90
2022-09-09T23:01:11.332Z,14.00
2022-09-09T23:03:41.185Z,14.10
2022-09-09T23:06:15.474Z,14.20
2022-09-09T23:08:43.704Z,14.30
2022-09-09T23:11:13.635Z,14.30
2022-09-09T23:13:43.130Z,14.40
2022-09-09T23:16:13.618Z,14.40
2022-09-09T23:18:41.643Z,14.50
2022-09-09T23:21:11.281Z,14.40
2022-09-09T23:23:40.593Z,14.40
2022-09-09T23:26:09.324Z,14.40
2022-09-09T23:28:38.446Z,14.40
2022-09-09T23:31:09.895Z,14.40
2022-09-09T23:33:39.707Z,14.30
2022-09-09T23:36:08.830Z,14.20
2022-09-09T23:38:40.638Z,14.20
2022-09-09T23:41:10.646Z,14.20
2022-09-09T23:43:39.652Z,14.10
2022-09-09T23:46:08.695Z,14.20
2022-09-09T23:48:39.092Z,14.20
2022-09-09T23:51:10.507Z,14.30
2022-09-09T23:53:38.368Z,14.30
2022-09-09T23:56:06.381Z,14.30
2022-09-09T23:58:34.777Z,14.30
